Time;durP1;ratioP1;P1;durP2;ratioP2;P2;SDS_P1;SDS_P2;PMS_P1;PMS_P2;Temp;Humidity;BMP_temperature;BMP_pressure;BME280_temperature;BME280_humidity;BME280_pressure;Samples;Min_cycle;Max_cycle;Signal;HPM_P1;HPM_P2
2021/01/04 00:01:28;;;;;;;23.27;11.25;;;3.40;99.90;;;;;;5056711;28;20237;-70
2021/01/04 00:04:15;;;;;;;17.08;9.00;;;3.40;99.90;;;;;;5056498;28;20213;-70
2021/01/04 00:07:16;;;;;;;21.27;11.50;;;3.40;99.90;;;;;;5056141;28;20550;-70
2021/01/04 00:10:07;;;;;;;24.13;10.18;;;3.30;99.90;;;;;;5056356;28;20194;-70
2021/01/04 00:12:40;;;;;;;18.52;9.50;;;3.20;99.90;;;;;;5056304;28;20675;-70
2021/01/04 00:15:10;;;;;;;24.40;11.80;;;3.40;99.90;;;;;;5056404;28;20298;-70
2021/01/04 00:17:54;;;;;;;21.38;11.07;;;3.40;99.90;;;;;;5055779;28;20227;-70
2021/01/04 00:20:30;;;;;;;26.08;11.88;;;3.40;99.90;;;;;;5056229;28;20572;-70
2021/01/04 00:23:04;;;;;;;24.17;9.88;;;3.30;99.90;;;;;;5056098;28;20261;-70
2021/01/04 00:25:46;;;;;;;20.38;10.35;;;3.20;99.90;;;;;;5055855;28;20214;-69
2021/01/04 00:28:14;;;;;;;26.13;12.00;;;3.30;99.90;;;;;;5055761;28;20231;-70
2021/01/04 00:30:47;;;;;;;22.90;10.43;;;3.40;99.90;;;;;;5055947;28;20264;-70
2021/01/04 00:33:19;;;;;;;21.83;11.95;;;3.50;99.90;;;;;;5055843;28;20695;-70
2021/01/04 00:35:49;;;;;;;21.30;12.15;;;3.60;99.90;;;;;;5055635;28;20665;-70
2021/01/04 00:38:35;;;;;;;22.70;9.38;;;3.70;99.90;;;;;;5055679;28;20230;-70
2021/01/04 00:41:19;;;;;;;22.30;10.93;;;3.80;99.90;;;;;;5055755;28;20223;-70
2021/01/04 00:43:50;;;;;;;25.85;10.80;;;3.80;99.90;;;;;;5055760;28;20209;-70
2021/01/04 00:46:20;;;;;;;26.02;10.95;;;3.90;99.90;;;;;;5055557;28;20230;-69
2021/01/04 00:48:57;;;;;;;22.95;11.93;;;3.90;99.90;;;;;;5055426;28;20219;-70
2021/01/04 00:51:36;;;;;;;24.40;11.02;;;4.00;99.90;;;;;;5055116;28;20199;-70
2021/01/04 00:54:17;;;;;;;21.23;10.77;;;4.00;99.90;;;;;;5055588;28;20203;-70
2021/01/04 00:56:52;;;;;;;22.33;9.85;;;4.00;99.90;;;;;;5055268;28;20212;-69
2021/01/04 00:59:31;;;;;;;23.30;11.45;;;4.00;99.90;;;;;;5055450;28;20237;-70
2021/01/04 01:02:47;;;;;;;24.80;11.02;;;4.00;99.90;;;;;;5055354;28;20276;-70
2021/01/04 01:05:19;;;;;;;31.65;11.35;;;3.90;99.90;;;;;;5050979;28;20212;-70
2021/01/04 01:08:05;;;;;;;22.52;9.95;;;3.70;99.90;;;;;;5055141;28;20245;-70
2021/01/04 01:10:34;;;;;;;19.17;10.85;;;3.60;99.90;;;;;;5055623;28;20203;-70
2021/01/04 01:13:11;;;;;;;24.08;10.77;;;3.60;99.90;;;;;;5055160;28;20290;-70
2021/01/04 01:15:48;;;;;;;16.25;9.25;;;3.50;99.90;;;;;;5054907;28;20546;-70
2021/01/04 01:18:30;;;;;;;17.83;10.82;;;3.50;99.90;;;;;;5055099;28;20237;-70
2021/01/04 01:20:57;;;;;;;21.38;10.32;;;3.60;99.90;;;;;;5054977;28;20575;-70
2021/01/04 01:23:25;;;;;;;22.17;11.13;;;3.50;99.90;;;;;;5054986;28;20745;-70
2021/01/04 01:26:02;;;;;;;25.77;11.85;;;3.60;99.90;;;;;;5054735;28;20253;-70
2021/01/04 01:28:58;;;;;;;25.17;10.27;;;3.60;99.90;;;;;;5054520;28;20239;-70
2021/01/04 01:31:55;;;;;;;20.98;11.23;;;3.70;99.90;;;;;;5054668;28;20203;-70
2021/01/04 01:34:32;;;;;;;26.05;11.15;;;3.60;99.90;;;;;;5049479;28;20199;-70
2021/01/04 01:37:25;;;;;;;22.83;9.82;;;3.60;99.90;;;;;;5054540;28;20571;-70
2021/01/04 01:40:12;;;;;;;20.67;10.50;;;3.60;99.90;;;;;;5054381;28;20192;-69
2021/01/04 01:43:13;;;;;;;20.63;9.85;;;3.60;99.90;;;;;;5054482;28;20237;-70
2021/01/04 01:45:48;;;;;;;25.30;10.43;;;3.50;99.90;;;;;;5034660;28;20208;-69
2021/01/04 01:48:25;;;;;;;20.35;9.85;;;3.60;99.90;;;;;;5054443;28;20626;-70
2021/01/04 01:50:54;;;;;;;25.50;10.85;;;3.60;99.90;;;;;;5054226;28;20637;-70
2021/01/04 01:53:28;;;;;;;22.60;10.77;;;3.60;99.90;;;;;;5054395;28;20203;-70
2021/01/04 01:56:14;;;;;;;26.70;11.30;;;3.60;99.90;;;;;;5053938;28;20661;-70
2021/01/04 01:59:10;;;;;;;25.48;10.40;;;3.40;99.90;;;;;;5054298;28;20223;-70
2021/01/04 02:01:46;;;;;;;16.60;9.00;;;3.40;99.90;;;;;;5041129;28;20580;-70
2021/01/04 02:04:23;;;;;;;19.98;10.18;;;3.40;99.90;;;;;;5053567;28;20345;-70
2021/01/04 02:06:58;;;;;;;18.70;8.80;;;3.40;99.90;;;;;;5053838;28;20209;-69
2021/01/04 02:09:29;;;;;;;25.02;10.07;;;3.40;99.90;;;;;;5054162;28;20231;-70
2021/01/04 02:12:03;;;;;;;21.42;10.10;;;3.50;99.90;;;;;;5053997;28;20203;-70
2021/01/04 02:14:38;;;;;;;18.45;9.30;;;3.60;99.90;;;;;;5054038;28;20203;-70
2021/01/04 02:17:21;;;;;;;16.42;9.15;;;3.70;99.90;;;;;;5053835;28;20298;-70
2021/01/04 02:20:18;;;;;;;22.58;11.15;;;3.80;99.90;;;;;;5053735;28;20187;-70
2021/01/04 02:23:11;;;;;;;21.85;10.63;;;3.80;99.90;;;;;;5053408;28;20244;-70
2021/01/04 02:25:42;;;;;;;23.73;10.63;;;3.90;99.90;;;;;;5053533;28;20666;-69
2021/01/04 02:28:15;;;;;;;25.35;10.73;;;3.90;99.90;;;;;;5053340;28;20241;-70
2021/01/04 02:30:41;;;;;;;26.20;10.38;;;3.80;99.90;;;;;;5053791;28;20198;-70
2021/01/04 02:33:10;;;;;;;20.98;10.90;;;3.80;99.90;;;;;;5053643;28;20564;-70
2021/01/04 02:35:39;;;;;;;22.52;9.45;;;3.80;99.90;;;;;;5053516;28;20207;-69
2021/01/04 02:38:06;;;;;;;27.90;11.60;;;3.90;99.90;;;;;;5053599;28;20314;-70
2021/01/04 02:40:32;;;;;;;22.58;10.73;;;4.00;99.90;;;;;;5053409;28;20730;-70
2021/01/04 02:42:59;;;;;;;17.55;9.75;;;4.00;99.90;;;;;;5053474;28;20235;-70
2021/01/04 02:45:29;;;;;;;25.25;12.40;;;3.90;99.90;;;;;;5053303;28;20745;-70
2021/01/04 02:48:26;;;;;;;22.25;10.65;;;4.00;99.90;;;;;;5053513;28;20361;-70
2021/01/04 02:51:01;;;;;;;25.60;10.23;;;4.00;99.90;;;;;;5048415;28;20209;-70
2021/01/04 02:53:53;;;;;;;22.35;10.10;;;3.80;99.90;;;;;;5053227;28;20214;-70
2021/01/04 02:56:44;;;;;;;21.20;11.10;;;3.90;99.90;;;;;;5053355;28;20203;-70
2021/01/04 02:59:38;;;;;;;25.13;10.32;;;4.00;99.90;;;;;;5038426;28;20230;-70
2021/01/04 03:02:10;;;;;;;22.75;9.90;;;4.10;99.90;;;;;;5050701;28;20237;-70
2021/01/04 03:04:38;;;;;;;17.90;10.70;;;4.20;99.90;;;;;;5053465;28;20308;-70
2021/01/04 03:07:10;;;;;;;25.10;10.20;;;4.10;99.90;;;;;;5053216;28;20612;-69
2021/01/04 03:09:41;;;;;;;20.40;9.88;;;4.10;99.90;;;;;;5053448;28;20188;-70
2021/01/04 03:12:12;;;;;;;20.85;9.55;;;4.20;99.90;;;;;;5053332;28;20534;-70
2021/01/04 03:15:21;;;;;;;24.50;11.30;;;4.20;99.90;;;;;;5055014;28;20211;-70
2021/01/04 03:17:58;;;;;;;21.15;10.02;;;4.20;99.90;;;;;;5057126;28;20229;-69
2021/01/04 03:20:26;;;;;;;21.52;10.32;;;4.20;99.90;;;;;;5057105;28;20641;-70
2021/01/04 03:22:53;;;;;;;22.75;10.75;;;4.20;99.90;;;;;;5057128;28;20222;-70
2021/01/04 03:25:29;;;;;;;23.98;11.13;;;4.30;99.90;;;;;;5057175;28;20199;-70
2021/01/04 03:27:55;;;;;;;19.55;10.23;;;4.30;99.90;;;;;;5056897;28;20235;-70
2021/01/04 03:30:23;;;;;;;25.23;9.80;;;4.30;99.90;;;;;;5056877;28;20207;-70
2021/01/04 03:32:49;;;;;;;19.73;9.50;;;4.40;99.90;;;;;;5056921;28;20199;-70
2021/01/04 03:35:16;;;;;;;19.50;10.20;;;4.30;99.90;;;;;;5056932;28;20210;-70
2021/01/04 03:37:42;;;;;;;23.88;11.90;;;4.30;99.90;;;;;;5056341;28;20227;-70
2021/01/04 03:40:09;;;;;;;28.98;10.43;;;4.30;99.90;;;;;;5056856;28;20306;-70
2021/01/04 03:42:36;;;;;;;21.15;10.68;;;4.30;99.90;;;;;;5056461;28;20219;-70
2021/01/04 03:45:04;;;;;;;24.08;10.10;;;4.20;99.90;;;;;;5056697;28;20290;-70
2021/01/04 03:47:32;;;;;;;31.95;12.27;;;4.00;99.90;;;;;;5056511;28;20701;-70
2021/01/04 03:49:58;;;;;;;20.13;11.35;;;3.90;99.90;;;;;;5056703;28;20218;-70
2021/01/04 03:52:24;;;;;;;22.90;11.00;;;3.80;99.90;;;;;;5056505;28;20286;-70
2021/01/04 03:54:51;;;;;;;24.10;10.23;;;3.60;99.90;;;;;;5056522;28;20290;-69
2021/01/04 03:57:17;;;;;;;22.77;10.85;;;3.40;99.90;;;;;;5056274;28;20207;-69
2021/01/04 03:59:43;;;;;;;22.20;9.35;;;3.20;99.90;;;;;;5056702;28;20353;-69
2021/01/04 04:02:10;;;;;;;22.25;10.18;;;3.00;99.90;;;;;;5056447;28;20241;-69
2021/01/04 04:04:39;;;;;;;22.52;10.18;;;3.00;99.90;;;;;;5056427;28;20290;-69
2021/01/04 04:07:06;;;;;;;20.65;9.40;;;2.90;99.90;;;;;;5056189;28;20210;-69
2021/01/04 04:09:32;;;;;;;20.70;8.52;;;2.80;99.90;;;;;;5056433;28;20318;-69
2021/01/04 04:11:58;;;;;;;23.30;9.50;;;2.80;99.90;;;;;;5056230;28;20345;-70
2021/01/04 04:14:25;;;;;;;23.85;9.55;;;2.80;99.90;;;;;;5056338;28;20298;-70
2021/01/04 04:16:51;;;;;;;22.35;10.43;;;2.90;99.90;;;;;;5055875;28;20641;-70
2021/01/04 04:19:17;;;;;;;22.55;10.27;;;2.80;99.90;;;;;;5055897;28;20318;-69
2021/01/04 04:21:51;;;;;;;27.52;11.95;;;2.80;99.90;;;;;;5056071;28;20650;-69
2021/01/04 04:24:17;;;;;;;24.67;11.20;;;2.80;99.90;;;;;;5056173;28;20203;-69
2021/01/04 04:26:44;;;;;;;22.90;10.30;;;2.70;99.90;;;;;;5054901;28;20233;-70
2021/01/04 04:29:10;;;;;;;19.75;10.50;;;2.70;99.90;;;;;;5056007;28;20224;-69
2021/01/04 04:31:42;;;;;;;17.88;10.10;;;2.70;99.90;;;;;;5055593;28;20206;-69
2021/01/04 04:34:08;;;;;;;19.98;9.63;;;2.70;99.90;;;;;;5055804;28;20204;-69
2021/01/04 04:36:34;;;;;;;22.98;10.82;;;2.70;99.90;;;;;;5055533;28;20206;-70
2021/01/04 04:39:02;;;;;;;21.98;11.48;;;2.80;99.90;;;;;;5055818;28;20231;-69
2021/01/04 04:41:31;;;;;;;22.95;10.85;;;2.80;99.90;;;;;;5055631;28;20280;-69
2021/01/04 04:44:05;;;;;;;19.83;11.10;;;3.00;99.90;;;;;;5055673;28;20199;-69
2021/01/04 04:46:47;;;;;;;21.77;9.15;;;3.20;99.90;;;;;;5055567;28;20638;-69
2021/01/04 04:49:24;;;;;;;22.67;10.55;;;3.30;99.90;;;;;;5055553;28;20597;-69
2021/01/04 04:52:07;;;;;;;26.42;10.27;;;3.20;99.90;;;;;;5055606;28;20210;-69
2021/01/04 04:54:47;;;;;;;21.30;9.07;;;3.20;99.90;;;;;;5055543;28;20207;-70
2021/01/04 04:57:48;;;;;;;19.23;9.98;;;3.20;99.90;;;;;;5055301;28;20203;-69
2021/01/04 05:00:32;;;;;;;20.42;8.40;;;3.30;99.90;;;;;;5050974;28;20213;-70
2021/01/04 05:03:14;;;;;;;23.98;11.60;;;3.50;99.90;;;;;;5055251;28;20250;-70
2021/01/04 05:05:58;;;;;;;19.20;9.10;;;3.60;99.90;;;;;;5055144;28;20226;-69
2021/01/04 05:08:51;;;;;;;19.08;9.35;;;3.80;99.90;;;;;;5055127;28;20230;-70
2021/01/04 05:11:28;;;;;;;24.08;11.52;;;3.90;99.90;;;;;;5052951;28;20214;-70
2021/01/04 05:13:56;;;;;;;23.05;10.25;;;4.00;99.90;;;;;;5054982;28;20252;-70
2021/01/04 05:16:38;;;;;;;24.00;10.68;;;4.00;99.90;;;;;;5055117;28;20248;-69
2021/01/04 05:19:44;;;;;;;19.30;9.40;;;4.00;99.90;;;;;;5054973;28;20700;-70
2021/01/04 05:22:47;;;;;;;19.40;10.25;;;4.10;99.90;;;;;;5054796;28;20711;-70
2021/01/04 05:25:33;;;;;;;18.95;9.50;;;4.10;99.90;;;;;;5054977;28;20257;-69
2021/01/04 05:28:29;;;;;;;19.38;11.00;;;4.00;99.90;;;;;;5054555;28;20756;-70
2021/01/04 05:31:19;;;;;;;19.30;9.77;;;4.00;99.90;;;;;;5054952;28;20577;-70
2021/01/04 05:34:04;;;;;;;20.95;10.48;;;3.90;99.90;;;;;;5054964;28;20214;-70
2021/01/04 05:36:41;;;;;;;21.83;10.10;;;3.70;99.90;;;;;;5054728;28;20204;-69
2021/01/04 05:39:12;;;;;;;25.63;9.43;;;3.50;99.90;;;;;;5053743;28;20227;-70
2021/01/04 05:42:00;;;;;;;26.05;10.90;;;3.40;99.90;;;;;;5054592;28;20235;-70
2021/01/04 05:44:57;;;;;;;17.73;9.02;;;3.20;99.90;;;;;;5054586;28;20207;-70
2021/01/04 05:47:46;;;;;;;17.48;9.57;;;3.10;99.90;;;;;;5054344;28;20209;-70
2021/01/04 05:50:23;;;;;;;16.67;10.82;;;3.10;99.90;;;;;;5054701;28;20237;-70
2021/01/04 05:52:53;;;;;;;24.60;11.13;;;3.20;99.90;;;;;;5054208;28;20261;-70
2021/01/04 05:55:20;;;;;;;21.63;9.98;;;3.30;99.90;;;;;;5054405;28;20199;-70
2021/01/04 05:57:48;;;;;;;23.45;10.00;;;3.40;99.90;;;;;;5054235;28;20581;-70
2021/01/04 06:00:28;;;;;;;24.65;11.38;;;3.30;99.90;;;;;;5054133;28;20204;-70
2021/01/04 06:03:05;;;;;;;18.85;10.02;;;3.40;99.90;;;;;;5054249;28;20227;-70
2021/01/04 06:05:31;;;;;;;26.35;11.13;;;3.30;99.90;;;;;;5054152;28;20206;-69
2021/01/04 06:07:58;;;;;;;28.98;11.10;;;3.10;99.90;;;;;;5054118;28;20226;-70
2021/01/04 06:10:29;;;;;;;20.13;10.27;;;3.00;99.90;;;;;;5054090;28;20204;-70
2021/01/04 06:12:55;;;;;;;25.52;10.10;;;2.90;99.90;;;;;;5054147;28;20199;-70
2021/01/04 06:15:28;;;;;;;25.85;10.38;;;3.00;99.90;;;;;;5053990;28;20294;-70
2021/01/04 06:18:03;;;;;;;23.40;11.20;;;2.90;99.90;;;;;;5053752;28;20611;-70
2021/01/04 06:20:55;;;;;;;27.90;11.75;;;2.90;99.90;;;;;;5054003;28;20221;-70
2021/01/04 06:23:29;;;;;;;21.40;9.80;;;2.80;99.90;;;;;;5053887;28;20223;-70
2021/01/04 06:25:57;;;;;;;18.60;11.85;;;2.80;99.90;;;;;;5053617;28;20294;-70
2021/01/04 06:28:23;;;;;;;28.27;11.20;;;2.90;99.90;;;;;;5053524;28;20228;-70
2021/01/04 06:31:01;;;;;;;21.55;10.77;;;2.90;99.90;;;;;;5053813;28;20309;-70
2021/01/04 06:33:29;;;;;;;20.60;9.75;;;2.90;99.90;;;;;;5053793;28;20203;-70
2021/01/04 06:36:05;;;;;;;20.88;10.02;;;2.80;99.90;;;;;;5053391;28;20203;-70
2021/01/04 06:38:34;;;;;;;21.00;10.00;;;2.90;99.90;;;;;;5053472;28;20230;-70
2021/01/04 06:41:12;;;;;;;22.60;10.65;;;2.90;99.90;;;;;;5053673;28;20610;-70
2021/01/04 06:43:38;;;;;;;19.30;10.10;;;2.90;99.90;;;;;;5053681;28;20213;-70
2021/01/04 06:46:38;;;;;;;30.88;12.00;;;2.90;99.90;;;;;;5053389;28;20326;-70
2021/01/04 06:49:10;;;;;;;23.50;10.48;;;2.90;99.90;;;;;;5048134;28;20623;-70
2021/01/04 06:52:13;;;;;;;26.17;10.77;;;2.90;99.90;;;;;;5053602;28;20194;-70
2021/01/04 06:55:19;;;;;;;22.95;9.82;;;3.00;99.90;;;;;;5053412;28;20252;-70
2021/01/04 06:58:07;;;;;;;22.77;9.25;;;3.00;99.90;;;;;;5027591;28;20233;-70
2021/01/04 07:00:46;;;;;;;18.58;9.88;;;3.10;99.90;;;;;;5053356;28;20657;-70
2021/01/04 07:03:54;;;;;;;21.83;8.63;;;3.10;99.90;;;;;;5053413;28;20233;-71
2021/01/04 07:06:48;;;;;;;21.08;10.15;;;3.20;99.90;;;;;;5053299;28;20205;-69
2021/01/04 07:09:47;;;;;;;19.50;10.60;;;3.20;99.90;;;;;;5053529;28;20231;-70
2021/01/04 07:12:18;;;;;;;25.67;11.15;;;3.10;99.90;;;;;;5053469;28;20206;-71
2021/01/04 07:15:27;;;;;;;24.13;10.88;;;3.10;99.90;;;;;;5053463;28;20211;-70
2021/01/04 07:18:25;;;;;;;18.00;9.30;;;3.00;99.90;;;;;;5053188;28;20224;-70
2021/01/04 07:21:05;;;;;;;25.55;11.32;;;2.90;99.90;;;;;;5053320;28;20210;-70
2021/01/04 07:23:45;;;;;;;19.25;8.55;;;2.90;99.90;;;;;;5053110;28;20223;-70
2021/01/04 07:26:20;;;;;;;16.77;8.50;;;2.90;99.90;;;;;;5053297;28;20203;-70
2021/01/04 07:29:06;;;;;;;24.23;9.20;;;2.80;99.90;;;;;;5052881;28;20326;-71
2021/01/04 07:31:38;;;;;;;26.92;11.27;;;2.80;99.90;;;;;;5053095;28;20203;-70
2021/01/04 07:34:12;;;;;;;24.48;12.02;;;3.00;99.90;;;;;;5052965;28;20738;-71
2021/01/04 07:36:48;;;;;;;25.23;12.00;;;3.00;99.90;;;;;;5052809;28;20209;-69
2021/01/04 07:39:34;;;;;;;23.58;11.80;;;3.00;99.90;;;;;;5053114;28;20223;-70
2021/01/04 07:42:22;;;;;;;22.33;10.82;;;3.00;99.90;;;;;;5053048;28;20223;-70
2021/01/04 07:45:27;;;;;;;17.85;10.02;;;3.00;99.90;;;;;;5053159;28;20698;-70
2021/01/04 07:48:45;;;;;;;20.00;10.38;;;3.20;99.90;;;;;;5053803;28;20305;-70
2021/01/04 07:51:41;;;;;;;15.40;10.80;;;3.10;99.90;;;;;;5053204;28;20213;-70
2021/01/04 07:55:08;;;;;;;24.25;11.10;;;3.10;99.90;;;;;;5052857;28;20669;-70
2021/01/04 07:58:11;;;;;;;22.20;9.65;;;3.10;99.90;;;;;;4991497;28;20244;-70
2021/01/04 08:00:54;;;;;;;24.13;10.48;;;3.00;99.90;;;;;;4985748;28;20209;-70
2021/01/04 08:04:12;;;;;;;24.67;10.93;;;3.20;99.90;;;;;;5044901;28;20588;-70
2021/01/04 08:07:17;;;;;;;23.58;9.93;;;3.30;99.90;;;;;;5056472;28;20207;-70
2021/01/04 08:10:07;;;;;;;15.85;8.80;;;3.30;99.90;;;;;;5043553;28;20207;-70
2021/01/04 08:13:02;;;;;;;21.63;10.25;;;3.30;99.90;;;;;;5056888;28;20199;-70
2021/01/04 08:15:36;;;;;;;24.25;11.10;;;3.50;99.90;;;;;;5056532;28;20264;-70
2021/01/04 08:18:06;;;;;;;18.75;11.25;;;3.50;99.90;;;;;;5056157;28;20593;-70
2021/01/04 08:20:36;;;;;;;21.23;9.15;;;3.30;99.90;;;;;;5056225;28;20205;-70
2021/01/04 08:23:25;;;;;;;21.55;11.07;;;3.20;99.90;;;;;;5056040;28;20238;-70
2021/01/04 08:26:03;;;;;;;21.77;10.60;;;3.30;99.90;;;;;;5055700;28;20204;-70
2021/01/04 08:28:41;;;;;;;21.50;10.48;;;3.20;99.90;;;;;;5055691;28;20234;-70
2021/01/04 08:31:25;;;;;;;21.45;10.27;;;3.20;99.90;;;;;;5056214;28;20194;-70
2021/01/04 08:33:54;;;;;;;21.90;10.85;;;3.20;99.90;;;;;;5056058;28;20203;-70
2021/01/04 08:36:25;;;;;;;22.30;11.55;;;3.40;99.90;;;;;;5055558;28;20214;-70
2021/01/04 08:39:04;;;;;;;23.45;11.50;;;3.50;99.90;;;;;;5056060;28;20693;-70
2021/01/04 08:41:33;;;;;;;29.02;11.07;;;3.60;99.90;;;;;;5055819;28;20187;-71
2021/01/04 08:44:10;;;;;;;22.52;11.52;;;3.70;99.90;;;;;;5055930;28;20249;-71
2021/01/04 08:46:37;;;;;;;26.30;10.43;;;3.80;99.90;;;;;;5055642;28;20730;-70
2021/01/04 08:49:19;;;;;;;22.27;11.45;;;3.80;99.90;;;;;;5056003;28;20255;-70
2021/01/04 08:51:48;;;;;;;18.13;10.68;;;3.80;99.90;;;;;;5055971;28;20206;-71
2021/01/04 08:54:32;;;;;;;19.83;11.18;;;3.70;99.90;;;;;;5055713;28;20256;-70
2021/01/04 08:57:19;;;;;;;17.55;9.82;;;3.90;99.90;;;;;;5055670;28;20208;-70
2021/01/04 08:59:57;;;;;;;23.52;11.43;;;3.90;99.90;;;;;;5055705;28;20191;-70
2021/01/04 09:02:34;;;;;;;20.40;10.80;;;4.00;99.90;;;;;;5055318;28;20599;-71
2021/01/04 09:05:03;;;;;;;17.25;10.30;;;3.70;99.90;;;;;;5055593;28;20203;-70
2021/01/04 09:07:30;;;;;;;18.77;9.63;;;3.50;99.90;;;;;;5055032;28;20658;-70
2021/01/04 09:09:59;;;;;;;21.85;11.50;;;3.50;99.90;;;;;;5055461;28;20234;-71
2021/01/04 09:12:36;;;;;;;28.85;11.48;;;3.50;99.90;;;;;;5055243;28;20211;-70
2021/01/04 09:15:07;;;;;;;21.38;8.98;;;3.40;99.90;;;;;;5055427;28;20192;-70
2021/01/04 09:17:40;;;;;;;21.77;12.20;;;3.50;99.90;;;;;;5054994;28;20231;-70
2021/01/04 09:20:24;;;;;;;20.83;11.20;;;3.60;99.90;;;;;;5055271;28;20192;-70
2021/01/04 09:23:05;;;;;;;18.25;8.90;;;3.40;99.90;;;;;;5055087;28;20273;-70
2021/01/04 09:25:45;;;;;;;19.83;10.07;;;3.40;99.90;;;;;;5054684;28;20191;-70
2021/01/04 09:28:15;;;;;;;22.15;10.27;;;3.40;99.90;;;;;;5054675;28;20288;-70
2021/01/04 09:30:41;;;;;;;24.52;11.55;;;3.40;99.90;;;;;;5054861;28;20657;-70
2021/01/04 09:33:12;;;;;;;22.50;10.50;;;3.50;99.90;;;;;;5054974;28;20208;-70
2021/01/04 09:35:38;;;;;;;23.30;9.63;;;3.70;99.90;;;;;;5054917;28;20207;-70
2021/01/04 09:38:07;;;;;;;26.40;11.52;;;3.80;99.90;;;;;;5055154;28;20588;-70
2021/01/04 09:40:34;;;;;;;21.00;10.52;;;3.70;99.90;;;;;;5054670;28;20203;-70
2021/01/04 09:43:05;;;;;;;22.85;11.07;;;3.70;99.90;;;;;;5054801;28;20256;-70
2021/01/04 09:45:33;;;;;;;19.27;10.55;;;3.70;99.90;;;;;;5055067;28;20217;-70
2021/01/04 09:48:02;;;;;;;21.70;11.18;;;3.80;99.90;;;;;;5055060;28;20224;-70
2021/01/04 09:50:33;;;;;;;22.40;12.57;;;3.90;99.90;;;;;;5055162;28;20203;-70
2021/01/04 09:53:03;;;;;;;23.80;11.35;;;4.00;99.90;;;;;;5054485;28;20200;-70
2021/01/04 09:55:32;;;;;;;24.00;11.13;;;4.10;99.90;;;;;;5054340;28;20294;-70
2021/01/04 09:58:01;;;;;;;25.27;12.40;;;4.10;99.90;;;;;;5054478;28;20227;-70
2021/01/04 10:00:32;;;;;;;22.90;11.65;;;4.10;99.90;;;;;;5054847;28;20207;-70
2021/01/04 10:03:03;;;;;;;24.42;10.70;;;4.20;99.90;;;;;;5054830;28;20269;-70
2021/01/04 10:05:35;;;;;;;23.15;11.25;;;4.20;99.90;;;;;;5054540;28;20204;-69
2021/01/04 10:08:05;;;;;;;22.85;10.70;;;4.20;99.90;;;;;;5054344;28;20227;-70
2021/01/04 10:10:31;;;;;;;18.17;10.88;;;4.20;99.90;;;;;;5054535;28;20275;-70
2021/01/04 10:13:09;;;;;;;25.67;11.52;;;4.10;99.90;;;;;;5054487;28;20634;-70
2021/01/04 10:15:36;;;;;;;20.10;10.95;;;4.20;99.90;;;;;;5053903;28;20199;-70
2021/01/04 10:18:19;;;;;;;21.90;11.23;;;4.30;99.90;;;;;;5054107;28;20645;-70
2021/01/04 10:20:49;;;;;;;19.88;11.30;;;4.40;99.90;;;;;;5054570;28;20210;-70
2021/01/04 10:23:22;;;;;;;19.45;10.60;;;4.30;99.90;;;;;;5054089;28;20227;-70
2021/01/04 10:25:53;;;;;;;20.30;9.70;;;4.40;99.90;;;;;;5053494;28;20211;-70
2021/01/04 10:28:19;;;;;;;23.95;9.95;;;4.50;99.90;;;;;;5053570;28;20249;-70
2021/01/04 10:30:46;;;;;;;22.60;10.25;;;4.70;99.90;;;;;;5054304;28;20210;-70
2021/01/04 10:33:24;;;;;;;22.60;10.57;;;4.60;99.90;;;;;;5053891;28;20559;-70
2021/01/04 10:36:02;;;;;;;19.08;10.90;;;4.70;99.90;;;;;;5053606;28;20210;-70
2021/01/04 10:38:28;;;;;;;18.20;10.02;;;4.80;99.90;;;;;;5053831;28;20318;-70
2021/01/04 10:40:55;;;;;;;19.67;10.85;;;4.80;99.90;;;;;;5053840;28;20209;-70
2021/01/04 10:43:24;;;;;;;22.85;10.63;;;4.80;99.90;;;;;;5053793;28;20280;-71
2021/01/04 10:45:51;;;;;;;22.38;10.50;;;4.80;99.90;;;;;;5053627;28;20199;-70
2021/01/04 10:48:22;;;;;;;19.65;9.77;;;4.70;99.90;;;;;;5053451;28;20223;-70
2021/01/04 10:50:51;;;;;;;21.30;10.07;;;4.70;99.90;;;;;;5053794;28;20192;-71
2021/01/04 10:53:31;;;;;;;22.67;10.60;;;4.70;99.90;;;;;;5053655;28;20203;-71
2021/01/04 10:56:19;;;;;;;19.63;9.73;;;4.70;99.90;;;;;;5053510;28;20345;-70
2021/01/04 10:58:53;;;;;;;18.70;9.65;;;4.70;99.90;;;;;;5054136;28;20277;-71
2021/01/04 11:01:22;;;;;;;24.13;11.35;;;4.70;99.90;;;;;;5053630;28;20187;-70
2021/01/04 11:03:54;;;;;;;21.27;10.18;;;4.40;99.90;;;;;;5053223;28;20318;-70
2021/01/04 11:06:25;;;;;;;22.90;10.02;;;4.20;99.90;;;;;;5053332;28;20257;-70
2021/01/04 11:08:51;;;;;;;23.35;9.50;;;4.10;99.90;;;;;;5053279;28;20322;-71
2021/01/04 11:11:34;;;;;;;20.83;10.82;;;4.10;99.90;;;;;;5053579;28;20207;-70
2021/01/04 11:14:07;;;;;;;19.67;10.05;;;4.30;99.90;;;;;;5053580;28;20199;-70
2021/01/04 11:16:42;;;;;;;21.80;10.38;;;4.40;99.90;;;;;;5053021;28;20249;-70
2021/01/04 11:19:09;;;;;;;20.38;10.02;;;4.60;99.90;;;;;;5053417;28;20231;-70
2021/01/04 11:21:37;;;;;;;21.08;11.38;;;4.70;99.90;;;;;;5053375;28;20289;-70
2021/01/04 11:24:05;;;;;;;20.55;10.18;;;4.70;99.90;;;;;;5053521;28;20210;-71
2021/01/04 11:26:31;;;;;;;14.05;8.77;;;4.70;99.90;;;;;;5052849;28;20233;-71
2021/01/04 11:28:57;;;;;;;16.90;9.43;;;4.70;99.90;;;;;;5053356;28;20231;-71
2021/01/04 11:31:24;;;;;;;20.25;10.80;;;4.80;99.90;;;;;;5053452;28;20199;-71
2021/01/04 11:33:50;;;;;;;22.20;10.27;;;4.90;99.90;;;;;;5053313;28;20294;-71
2021/01/04 11:36:17;;;;;;;20.98;9.55;;;4.90;99.90;;;;;;5053995;28;20248;-69
2021/01/04 11:38:44;;;;;;;18.85;9.88;;;4.90;99.90;;;;;;5057026;28;20237;-70
2021/01/04 11:41:12;;;;;;;17.25;9.60;;;4.90;99.90;;;;;;5056795;28;20290;-71
2021/01/04 11:43:42;;;;;;;20.48;9.57;;;4.90;99.90;;;;;;5056928;28;20224;-70
2021/01/04 11:46:08;;;;;;;12.75;7.15;;;5.00;99.90;;;;;;5056982;28;20207;-70
2021/01/04 11:48:35;;;;;;;14.20;7.10;;;5.00;99.90;;;;;;5056696;28;20658;-70
2021/01/04 11:51:01;;;;;;;13.57;7.30;;;5.10;99.90;;;;;;5056862;28;20199;-70
2021/01/04 11:53:30;;;;;;;10.60;6.78;;;5.20;99.90;;;;;;5056864;28;20202;-70
2021/01/04 11:55:56;;;;;;;11.20;6.80;;;5.20;99.90;;;;;;5056596;28;20203;-70
2021/01/04 11:58:23;;;;;;;10.50;6.22;;;5.30;99.90;;;;;;5056653;28;20314;-70
2021/01/04 12:00:50;;;;;;;9.27;5.65;;;5.30;99.90;;;;;;5056714;28;20571;-70
2021/01/04 12:03:16;;;;;;;11.43;6.45;;;5.30;99.90;;;;;;5056485;28;20227;-70
2021/01/04 12:05:42;;;;;;;13.32;6.88;;;5.30;99.90;;;;;;5056288;28;20298;-69
2021/01/04 12:08:09;;;;;;;12.23;7.45;;;5.30;99.90;;;;;;5056501;28;20580;-70
2021/01/04 12:10:36;;;;;;;14.02;7.10;;;5.30;99.90;;;;;;5056495;28;20291;-70
2021/01/04 12:13:06;;;;;;;14.65;7.90;;;5.30;99.90;;;;;;5056278;28;20202;-70
2021/01/04 12:15:32;;;;;;;12.75;7.45;;;5.30;99.90;;;;;;5056233;28;20239;-69
2021/01/04 12:17:59;;;;;;;13.90;7.47;;;5.30;99.90;;;;;;5056183;28;20223;-70
2021/01/04 12:20:25;;;;;;;14.70;7.47;;;5.40;99.90;;;;;;5056279;28;20299;-70
2021/01/04 12:22:51;;;;;;;17.73;8.40;;;5.30;99.90;;;;;;5056162;28;20228;-70
2021/01/04 12:25:17;;;;;;;15.32;7.97;;;5.40;99.90;;;;;;5056064;28;20218;-70
2021/01/04 12:27:45;;;;;;;15.73;8.38;;;5.30;99.90;;;;;;5055546;28;20238;-70
2021/01/04 12:30:12;;;;;;;16.92;8.23;;;5.30;99.90;;;;;;5056195;28;20294;-70
2021/01/04 12:32:41;;;;;;;14.00;8.30;;;5.30;99.90;;;;;;5055975;28;20203;-70
2021/01/04 12:35:09;;;;;;;16.30;8.00;;;5.20;99.90;;;;;;5055995;28;20211;-71
2021/01/04 12:37:35;;;;;;;18.00;7.80;;;5.20;99.90;;;;;;5055431;28;20697;-70
2021/01/04 12:40:01;;;;;;;15.55;7.07;;;5.20;99.90;;;;;;5055597;28;20665;-70
2021/01/04 12:42:28;;;;;;;18.40;8.20;;;5.10;99.90;;;;;;5055723;28;20223;-70
2021/01/04 12:44:55;;;;;;;20.90;8.52;;;5.10;99.90;;;;;;5055781;28;20294;-70
2021/01/04 12:47:21;;;;;;;17.10;7.55;;;5.20;99.90;;;;;;5054751;28;20627;-72
2021/01/04 12:49:47;;;;;;;19.70;8.10;;;5.10;99.90;;;;;;5055721;28;20299;-70
2021/01/04 12:52:14;;;;;;;16.15;7.90;;;5.10;99.90;;;;;;5055426;28;20779;-70
2021/01/04 12:54:43;;;;;;;11.18;7.07;;;5.10;99.90;;;;;;5055552;28;20341;-70
2021/01/04 12:57:10;;;;;;;15.73;8.55;;;5.10;99.90;;;;;;5055217;28;20712;-69
2021/01/04 12:59:39;;;;;;;15.00;8.20;;;5.00;99.90;;;;;;5055453;28;20227;-70
2021/01/04 13:02:07;;;;;;;15.38;7.78;;;5.10;99.90;;;;;;5055321;28;20226;-70
2021/01/04 13:04:33;;;;;;;20.05;8.05;;;5.00;99.90;;;;;;5055388;28;20249;-70
2021/01/04 13:07:00;;;;;;;16.20;9.20;;;5.10;99.90;;;;;;5055219;28;20204;-70
2021/01/04 13:09:26;;;;;;;15.90;7.93;;;5.10;99.90;;;;;;5055313;28;20234;-70
2021/01/04 13:11:53;;;;;;;11.95;7.40;;;5.10;99.90;;;;;;5055243;28;20725;-69
2021/01/04 13:14:21;;;;;;;13.15;7.43;;;5.10;99.90;;;;;;5055166;28;20290;-69
2021/01/04 13:16:47;;;;;;;11.73;7.45;;;5.00;99.90;;;;;;5054967;28;20205;-70
2021/01/04 13:19:14;;;;;;;16.55;7.78;;;5.00;99.90;;;;;;5055376;28;20212;-70
2021/01/04 13:21:41;;;;;;;15.57;7.72;;;4.90;99.90;;;;;;5055086;28;20228;-70
2021/01/04 13:24:09;;;;;;;13.18;7.38;;;4.90;99.90;;;;;;5054890;28;20804;-70